Time;durP1;ratioP1;P1;durP2;ratioP2;P2;SDS_P1;SDS_P2;PMS_P1;PMS_P2;Temp;Humidity;BMP_temperature;BMP_pressure;BME280_temperature;BME280_humidity;BME280_pressure;Samples;Min_cycle;Max_cycle;Signal;HPM_P1;HPM_P2
2021/06/05 00:02:46;;;;;;;18.25;15.80;;;23.50;54.40;;;;;;4807693;54;21019;-34
2021/06/05 00:07:47;;;;;;;17.23;15.40;;;23.40;54.30;;;;;;4795289;58;21000;-33
2021/06/05 00:12:48;;;;;;;17.98;16.08;;;23.40;54.30;;;;;;4798134;54;21533;-33
2021/06/05 00:17:49;;;;;;;17.45;15.57;;;23.40;54.20;;;;;;4795419;58;21553;-35
2021/06/05 00:22:50;;;;;;;17.23;15.50;;;23.40;54.30;;;;;;4802526;54;21067;-30
2021/06/05 00:27:51;;;;;;;18.05;16.17;;;23.50;54.40;;;;;;4836019;54;21050;-31
2021/06/05 00:32:52;;;;;;;16.75;14.95;;;23.40;54.30;;;;;;4872027;54;21063;-35
2021/06/05 00:37:53;;;;;;;16.90;15.18;;;23.40;54.30;;;;;;4795289;58;21062;-30
2021/06/05 00:42:56;;;;;;;16.33;14.63;;;23.40;54.30;;;;;;4795362;58;21011;-36
2021/06/05 00:47:57;;;;;;;17.52;15.68;;;23.40;54.20;;;;;;4809324;54;20983;-36
2021/06/05 00:52:58;;;;;;;16.65;14.85;;;23.40;54.20;;;;;;4813814;54;20999;-36
2021/06/05 00:57:59;;;;;;;15.57;13.98;;;23.40;54.30;;;;;;4867945;54;21071;-36
2021/06/05 01:03:03;;;;;;;17.08;14.40;;;23.40;54.20;;;;;;4806365;54;21055;-36
2021/06/05 01:08:33;;;;;;;16.02;14.32;;;23.40;54.20;;;;;;4804613;54;21138;-29
2021/06/05 01:14:06;;;;;;;15.82;14.18;;;23.40;54.20;;;;;;4834767;54;20986;-36
2021/06/05 01:19:28;;;;;;;15.02;13.52;;;23.40;54.20;;;;;;4807739;54;20983;-35
2021/06/05 01:25:59;;;;;;;15.45;13.75;;;23.40;54.20;;;;;;4829128;54;21130;-35
2021/06/05 01:31:05;;;;;;;14.60;13.10;;;23.40;54.20;;;;;;4800469;54;21102;-36
2021/06/05 01:36:08;;;;;;;15.27;13.40;;;23.40;54.20;;;;;;4842554;54;20987;-33
2021/06/05 01:41:11;;;;;;;15.10;13.52;;;23.40;54.20;;;;;;4813733;54;21055;-35
2021/06/05 01:46:14;;;;;;;14.55;13.05;;;23.40;54.20;;;;;;4798428;54;21091;-25
2021/06/05 01:51:17;;;;;;;14.98;13.43;;;23.40;54.10;;;;;;4871365;54;21043;-34
2021/06/05 01:56:43;;;;;;;14.20;12.70;;;23.40;54.20;;;;;;4797268;54;21136;-36
2021/06/05 02:01:45;;;;;;;13.70;12.30;;;23.40;54.20;;;;;;4825044;54;21471;-34
2021/06/05 02:06:48;;;;;;;14.32;12.88;;;23.40;54.10;;;;;;4830840;54;21553;-36
2021/06/05 02:12:14;;;;;;;14.20;12.70;;;23.40;54.10;;;;;;4843796;54;21011;-37
2021/06/05 02:17:15;;;;;;;14.43;12.65;;;23.40;54.20;;;;;;4813779;54;20991;-36
2021/06/05 02:22:20;;;;;;;13.85;12.35;;;23.40;54.10;;;;;;4832813;54;21054;-35
2021/06/05 02:27:23;;;;;;;14.45;13.05;;;23.40;54.10;;;;;;4805384;54;21082;-33
2021/06/05 02:32:29;;;;;;;14.23;12.77;;;23.40;54.10;;;;;;4820939;54;21031;-35
2021/06/05 02:37:30;;;;;;;13.80;12.40;;;23.40;54.00;;;;;;4844311;54;21496;-33
2021/06/05 02:42:32;;;;;;;13.38;11.80;;;23.40;54.00;;;;;;4820817;54;21015;-34
2021/06/05 02:47:33;;;;;;;12.23;10.93;;;23.40;54.10;;;;;;4829836;54;21055;-27
2021/06/05 02:52:37;;;;;;;12.35;11.02;;;23.40;54.00;;;;;;4801901;54;20975;-26
2021/06/05 02:57:39;;;;;;;13.23;11.82;;;23.40;54.00;;;;;;4829352;54;21084;-32
2021/06/05 03:02:40;;;;;;;12.82;11.45;;;23.40;54.10;;;;;;4815074;54;21478;-36
2021/06/05 03:07:41;;;;;;;12.85;11.30;;;23.40;54.00;;;;;;4795358;54;21086;-31
2021/06/05 03:12:42;;;;;;;12.32;11.12;;;23.40;54.00;;;;;;4795328;58;20998;-31
2021/06/05 03:17:44;;;;;;;12.55;11.25;;;23.40;54.00;;;;;;4838541;54;20995;-37
2021/06/05 03:22:45;;;;;;;12.90;11.60;;;23.40;53.90;;;;;;4810101;54;21019;-34
2021/06/05 03:27:46;;;;;;;12.85;11.55;;;23.40;53.90;;;;;;4829713;54;21034;-36
2021/06/05 03:32:46;;;;;;;12.43;11.18;;;23.40;53.90;;;;;;4794898;58;21095;-35
2021/06/05 03:37:48;;;;;;;12.13;10.93;;;23.40;54.00;;;;;;4807758;54;21616;-36
2021/06/05 03:42:49;;;;;;;12.60;11.30;;;23.40;53.90;;;;;;4821376;54;21059;-35
2021/06/05 03:47:50;;;;;;;12.30;11.10;;;23.40;53.90;;;;;;4795508;58;21094;-37
2021/06/05 03:52:52;;;;;;;11.75;10.60;;;23.40;53.80;;;;;;4801583;54;21581;-32
2021/06/05 03:57:53;;;;;;;11.70;10.50;;;23.40;53.80;;;;;;4795740;58;21070;-35
2021/06/05 04:02:54;;;;;;;12.05;10.63;;;23.40;53.80;;;;;;4829395;54;21092;-23
2021/06/05 04:07:55;;;;;;;11.90;10.70;;;23.40;53.80;;;;;;4834438;54;21588;-31
2021/06/05 04:12:58;;;;;;;11.02;9.93;;;23.40;53.80;;;;;;4806091;54;21003;-35
2021/06/05 04:18:07;;;;;;;11.43;10.23;;;23.40;53.80;;;;;;4795787;54;21557;-28
2021/06/05 04:23:11;;;;;;;10.88;9.77;;;23.40;53.80;;;;;;4817564;54;20971;-23
2021/06/05 04:28:14;;;;;;;10.93;9.82;;;23.40;53.70;;;;;;4837911;54;22226;-33
2021/06/05 04:33:18;;;;;;;10.88;9.65;;;23.40;53.80;;;;;;4810114;54;21015;-37
2021/06/05 04:38:20;;;;;;;11.35;10.20;;;23.40;54.40;;;;;;4846319;54;21067;-38
2021/06/05 04:43:23;;;;;;;10.45;9.45;;;23.40;53.70;;;;;;4803026;54;21063;-34
2021/06/05 04:48:25;;;;;;;11.23;10.13;;;23.40;53.70;;;;;;4818823;54;21545;-35
2021/06/05 04:53:26;;;;;;;10.90;9.80;;;23.40;53.60;;;;;;4795250;55;21055;-37
2021/06/05 04:58:27;;;;;;;11.12;9.70;;;23.40;53.60;;;;;;4799498;54;20963;-24
2021/06/05 05:03:29;;;;;;;10.38;9.27;;;23.30;53.50;;;;;;4809909;54;21504;-36
2021/06/05 05:08:34;;;;;;;10.38;9.23;;;23.40;53.50;;;;;;4821460;54;21019;-35
2021/06/05 05:13:35;;;;;;;11.65;8.85;;;23.30;53.40;;;;;;4815938;54;20995;-30
2021/06/05 05:18:44;;;;;;;9.90;8.60;;;23.30;53.40;;;;;;4842260;54;21011;-35
2021/06/05 05:23:46;;;;;;;10.88;9.18;;;23.30;53.30;;;;;;4802781;54;21648;-36
2021/06/05 05:28:49;;;;;;;10.30;9.30;;;23.30;53.30;;;;;;4830482;54;21007;-37
2021/06/05 05:33:50;;;;;;;10.45;8.98;;;23.40;53.30;;;;;;4798289;54;21501;-35
2021/06/05 05:38:52;;;;;;;10.05;9.05;;;23.30;53.20;;;;;;4804760;54;21007;-23
2021/06/05 05:43:54;;;;;;;12.43;9.40;;;23.40;53.20;;;;;;4795325;58;20979;-31
2021/06/05 05:48:55;;;;;;;9.63;8.65;;;23.30;53.10;;;;;;4805233;54;21055;-29
2021/06/05 05:53:56;;;;;;;10.05;9.05;;;23.30;53.10;;;;;;4794910;55;21129;-37
2021/06/05 05:58:58;;;;;;;9.85;8.85;;;23.30;53.00;;;;;;4859240;54;20999;-36
2021/06/05 06:03:59;;;;;;;10.48;8.77;;;23.30;52.90;;;;;;4794821;58;20979;-36
2021/06/05 06:09:00;;;;;;;9.75;8.75;;;23.30;53.50;;;;;;4809247;54;21055;-35
2021/06/05 06:14:01;;;;;;;11.12;9.27;;;23.30;52.80;;;;;;4900775;54;21095;-31
2021/06/05 06:19:02;;;;;;;10.68;9.57;;;23.30;52.80;;;;;;4821217;54;21525;-28
2021/06/05 06:24:06;;;;;;;12.90;9.80;;;23.30;52.80;;;;;;4818336;54;21023;-35
2021/06/05 06:29:16;;;;;;;11.95;9.60;;;23.30;52.70;;;;;;4834459;54;21022;-29
2021/06/05 06:34:17;;;;;;;10.43;9.20;;;23.30;52.70;;;;;;4801522;54;21533;-35
2021/06/05 06:39:18;;;;;;;10.77;9.40;;;23.30;53.30;;;;;;4803020;54;21011;-34
2021/06/05 06:44:19;;;;;;;12.57;9.98;;;23.30;52.70;;;;;;4795047;58;21034;-26
2021/06/05 06:49:22;;;;;;;11.98;9.38;;;23.30;52.70;;;;;;4841742;54;21496;-36
2021/06/05 06:54:23;;;;;;;12.25;9.98;;;23.30;52.70;;;;;;4826174;54;21002;-38
2021/06/05 06:59:24;;;;;;;10.50;9.35;;;23.30;52.60;;;;;;4800985;54;21063;-36
2021/06/05 07:04:25;;;;;;;11.32;9.98;;;23.30;52.60;;;;;;4843306;54;20999;-38
2021/06/05 07:09:25;;;;;;;12.13;9.90;;;23.30;52.70;;;;;;4795611;55;21469;-30
2021/06/05 07:14:27;;;;;;;12.88;9.95;;;23.30;52.60;;;;;;4827834;54;21438;-29
2021/06/05 07:19:28;;;;;;;12.45;10.82;;;23.30;52.60;;;;;;4817228;54;21572;-36
2021/06/05 07:24:30;;;;;;;11.95;10.65;;;23.30;52.60;;;;;;4828819;54;21019;-32
2021/06/05 07:29:30;;;;;;;13.05;11.00;;;23.30;52.60;;;;;;4846466;54;20999;-33
2021/06/05 07:34:34;;;;;;;12.85;11.27;;;23.30;52.60;;;;;;4795011;54;21050;-35
2021/06/05 07:39:36;;;;;;;14.20;11.77;;;23.30;52.60;;;;;;4796342;58;21463;-36
2021/06/05 07:44:36;;;;;;;13.40;11.23;;;23.30;52.70;;;;;;4796174;54;21023;-33
2021/06/05 07:49:39;;;;;;;14.07;11.57;;;23.30;52.50;;;;;;4797063;54;21478;-36
2021/06/05 07:54:40;;;;;;;17.95;11.93;;;23.30;52.70;;;;;;4818506;54;21087;-24
2021/06/05 07:59:41;;;;;;;15.25;12.52;;;23.40;52.80;;;;;;4818054;54;21118;-31
2021/06/05 08:04:42;;;;;;;18.27;12.05;;;23.30;52.70;;;;;;4852585;54;21490;-37
2021/06/05 08:09:46;;;;;;;18.05;12.95;;;23.30;52.70;;;;;;4873607;54;21108;-29
2021/06/05 08:14:47;;;;;;;16.35;12.65;;;23.30;52.80;;;;;;4858008;54;21067;-30
2021/06/05 08:19:48;;;;;;;15.55;11.98;;;23.30;52.80;;;;;;4830385;54;21461;-34
2021/06/05 08:24:50;;;;;;;17.25;12.90;;;23.30;52.80;;;;;;4797092;54;21275;-35
2021/06/05 08:29:50;;;;;;;16.45;12.82;;;23.40;52.90;;;;;;4816400;54;21072;-35
2021/06/05 08:34:52;;;;;;;16.23;12.95;;;23.40;52.90;;;;;;4814741;54;21007;-37
2021/06/05 08:39:53;;;;;;;16.67;12.88;;;23.40;52.90;;;;;;4794883;58;21809;-35
2021/06/05 08:44:57;;;;;;;15.30;11.88;;;23.40;53.00;;;;;;4794863;58;20987;-34
2021/06/05 08:50:11;;;;;;;17.83;13.55;;;23.40;53.00;;;;;;4887148;54;21513;-35
2021/06/05 08:56:34;;;;;;;15.13;12.02;;;23.30;53.00;;;;;;4822739;54;21015;-34
2021/06/05 09:01:41;;;;;;;14.55;11.15;;;23.40;53.10;;;;;;4850968;54;21059;-35
2021/06/05 09:06:53;;;;;;;;;;;23.40;53.10;;;;;;4798865;58;20988;-29
2021/06/05 09:11:54;;;;;;;15.35;12.32;;;23.40;53.10;;;;;;4860910;54;20078;-33
2021/06/05 09:16:58;;;;;;;15.05;11.85;;;23.40;53.30;;;;;;4794795;58;21074;-35
2021/06/05 09:22:59;;;;;;;17.40;13.60;;;23.40;53.30;;;;;;4801513;54;20987;-35
2021/06/05 09:28:26;;;;;;;16.15;12.77;;;23.40;53.40;;;;;;4834909;54;21172;-37
2021/06/05 09:33:30;;;;;;;15.73;11.93;;;23.40;54.00;;;;;;4823713;54;21023;-37
2021/06/05 09:38:38;;;;;;;14.10;11.23;;;23.40;53.40;;;;;;4840508;54;21010;-34
2021/06/05 09:43:42;;;;;;;15.30;12.00;;;23.40;53.40;;;;;;4853233;54;21485;-36
2021/06/05 09:48:46;;;;;;;14.25;11.85;;;23.40;53.50;;;;;;4795127;58;21529;-37
2021/06/05 09:54:00;;;;;;;14.23;11.88;;;23.40;53.50;;;;;;4818244;54;21590;-23
2021/06/05 09:59:35;;;;;;;15.82;11.73;;;23.40;53.50;;;;;;4794646;58;21026;-36
2021/06/05 10:04:37;;;;;;;13.88;11.70;;;23.40;53.60;;;;;;4800410;54;21477;-23
2021/06/05 10:09:42;;;;;;;14.15;11.45;;;23.40;53.60;;;;;;4826537;54;21011;-33
2021/06/05 10:16:36;;;;;;;15.32;12.43;;;23.40;53.60;;;;;;4821211;54;21070;-37
2021/06/05 10:21:46;;;;;;;13.57;11.45;;;23.40;53.60;;;;;;4794805;58;21446;-29
2021/06/05 10:26:48;;;;;;;12.60;11.07;;;23.40;53.80;;;;;;4804261;54;21485;-29
2021/06/05 10:31:49;;;;;;;14.73;11.82;;;23.40;53.80;;;;;;4841218;54;21136;-22
2021/06/05 10:36:52;;;;;;;12.95;11.02;;;23.40;53.80;;;;;;4794964;58;21043;-34
2021/06/05 10:42:02;;;;;;;12.55;11.25;;;23.40;53.80;;;;;;4794909;58;21043;-36
2021/06/05 10:47:10;;;;;;;14.30;11.98;;;23.50;53.80;;;;;;4800086;54;20975;-36
2021/06/05 10:55:45;;;;;;;14.35;11.27;;;23.50;53.90;;;;;;4807485;54;21011;-30
2021/06/05 11:01:00;;;;;;;13.62;11.65;;;23.50;53.90;;;;;;4795253;58;21074;-34
2021/06/05 11:06:05;;;;;;;13.07;11.60;;;23.50;54.00;;;;;;4819958;54;21505;-33
2021/06/05 11:11:51;;;;;;;13.02;11.43;;;23.50;54.00;;;;;;4811341;54;21193;-36
2021/06/05 11:17:37;;;;;;;13.68;11.80;;;23.50;54.00;;;;;;4805163;54;21478;-30
2021/06/05 11:24:31;;;;;;;14.27;11.82;;;23.50;54.00;;;;;;4806988;54;20987;-34
2021/06/05 11:29:55;;;;;;;14.15;11.45;;;23.50;54.10;;;;;;4830825;54;20999;-29
2021/06/05 11:35:00;;;;;;;15.80;12.15;;;23.50;54.10;;;;;;4819749;54;21019;-29
2021/06/05 11:40:07;;;;;;;13.27;11.93;;;23.50;54.10;;;;;;4813434;54;21971;-23
2021/06/05 11:47:45;;;;;;;14.50;12.15;;;23.50;54.10;;;;;;4795666;58;21046;-37
2021/06/05 11:52:55;;;;;;;14.80;13.20;;;23.50;54.10;;;;;;4808373;54;21038;-33
2021/06/05 11:58:41;;;;;;;14.45;12.30;;;23.50;54.20;;;;;;4844890;54;20990;-31
2021/06/05 12:04:10;;;;;;;13.68;11.82;;;23.50;54.20;;;;;;4821500;54;21869;-32
2021/06/05 12:09:23;;;;;;;15.05;12.63;;;23.50;54.20;;;;;;4821649;54;21533;-29
2021/06/05 12:14:47;;;;;;;14.82;12.65;;;23.60;54.20;;;;;;4819504;54;21089;-31
2021/06/05 12:19:48;;;;;;;14.65;13.02;;;23.50;54.20;;;;;;4805826;54;21047;-32
2021/06/05 12:24:52;;;;;;;14.73;12.37;;;23.50;54.20;;;;;;4794889;58;21136;-36
2021/06/05 12:30:16;;;;;;;14.23;12.70;;;23.50;54.20;;;;;;4795347;58;20991;-29
2021/06/05 12:35:26;;;;;;;14.85;13.07;;;23.60;54.30;;;;;;4801386;54;21513;-29
2021/06/05 12:41:38;;;;;;;16.27;14.05;;;23.50;54.20;;;;;;4857448;54;21114;-30
2021/06/05 12:46:39;;;;;;;14.65;13.15;;;23.60;54.30;;;;;;4833154;54;21063;-25
2021/06/05 12:51:50;;;;;;;15.02;13.43;;;23.60;54.30;;;;;;4794996;58;21042;-34
2021/06/05 12:56:50;;;;;;;14.85;13.18;;;23.60;54.30;;;;;;4800206;54;21102;-34
2021/06/05 13:01:51;;;;;;;15.32;13.73;;;23.60;54.30;;;;;;4795271;55;21533;-35
2021/06/05 13:07:03;;;;;;;15.80;13.70;;;23.60;54.30;;;;;;4817647;54;21055;-27
2021/06/05 13:12:50;;;;;;;15.00;13.40;;;23.60;54.40;;;;;;4811016;54;21581;-37
2021/06/05 13:17:55;;;;;;;15.82;13.60;;;23.60;54.40;;;;;;4828742;54;20998;-28
2021/06/05 13:23:34;;;;;;;16.50;14.75;;;23.60;54.40;;;;;;4812277;54;20995;-36
2021/06/05 13:28:35;;;;;;;14.65;13.15;;;23.60;54.40;;;;;;4864475;54;21059;-33
2021/06/05 13:33:53;;;;;;;16.35;14.05;;;23.60;54.40;;;;;;4808562;54;21526;-24
2021/06/05 13:39:11;;;;;;;15.80;13.85;;;23.60;54.40;;;;;;4841334;54;21079;-35
2021/06/05 13:44:12;;;;;;;16.35;14.43;;;23.60;54.40;;;;;;4795017;58;21036;-32
2021/06/05 13:49:13;;;;;;;16.23;13.70;;;23.60;54.40;;;;;;4795154;55;21051;-37
2021/06/05 13:54:14;;;;;;;17.05;14.15;;;23.60;54.40;;;;;;4804763;54;21051;-25
2021/06/05 13:59:15;;;;;;;16.08;14.38;;;23.60;54.50;;;;;;4835776;54;21046;-36
2021/06/05 14:04:15;;;;;;;16.77;14.13;;;23.60;54.50;;;;;;4811213;54;20991;-36
2021/06/05 14:09:16;;;;;;;15.88;14.13;;;23.60;54.50;;;;;;4794913;58;21508;-36
2021/06/05 14:14:19;;;;;;;16.75;14.48;;;23.60;54.60;;;;;;4862560;54;21071;-36
2021/06/05 14:19:20;;;;;;;17.92;15.10;;;23.60;54.50;;;;;;4806762;54;21493;-36
2021/06/05 14:24:21;;;;;;;16.08;14.18;;;23.60;54.60;;;;;;4807917;54;21063;-36
2021/06/05 14:29:22;;;;;;;16.77;14.85;;;23.60;54.60;;;;;;4834165;54;21522;-35
2021/06/05 14:34:23;;;;;;;16.30;14.32;;;23.60;54.60;;;;;;4803033;54;21530;-32
2021/06/05 14:39:25;;;;;;;16.33;14.27;;;23.60;54.60;;;;;;4802266;54;21186;-32
2021/06/05 14:44:27;;;;;;;16.67;14.55;;;23.60;54.60;;;;;;4795551;58;21058;-33
2021/06/05 14:49:28;;;;;;;16.12;14.43;;;23.60;54.60;;;;;;4826694;54;20983;-23
2021/06/05 14:54:29;;;;;;;16.73;15.00;;;23.60;54.70;;;;;;4825737;54;22178;-37
2021/06/05 14:59:29;;;;;;;16.35;14.65;;;23.60;54.60;;;;;;4795288;58;21451;-35
2021/06/05 15:04:30;;;;;;;17.55;15.18;;;23.60;55.40;;;;;;4795442;54;20991;-32
2021/06/05 15:09:31;;;;;;;18.52;15.90;;;23.60;54.70;;;;;;4795441;58;21027;-34
2021/06/05 15:14:32;;;;;;;16.10;14.43;;;23.60;54.70;;;;;;4820900;54;21582;-37
2021/06/05 15:19:33;;;;;;;16.73;14.82;;;23.70;54.70;;;;;;4795184;58;21055;-32
2021/06/05 15:24:34;;;;;;;17.42;15.48;;;23.70;54.80;;;;;;4807684;54;21059;-32
2021/06/05 15:29:36;;;;;;;17.00;15.20;;;23.70;54.80;;;;;;4808626;54;20995;-32
2021/06/05 15:34:36;;;;;;;16.80;14.63;;;23.70;54.80;;;;;;4817787;54;21477;-27
2021/06/05 15:39:37;;;;;;;17.45;15.65;;;23.70;55.40;;;;;;4808393;54;21015;-33
2021/06/05 15:44:39;;;;;;;17.85;15.95;;;23.70;54.80;;;;;;4795081;58;21007;-38
2021/06/05 15:49:40;;;;;;;17.62;15.73;;;23.70;54.80;;;;;;4795172;58;21501;-33
2021/06/05 15:54:41;;;;;;;17.05;15.25;;;23.70;54.80;;;;;;4826203;54;21098;-36
2021/06/05 15:59:42;;;;;;;17.35;15.55;;;23.70;54.90;;;;;;4807726;54;21007;-32
2021/06/05 16:04:46;;;;;;;17.33;15.52;;;23.70;54.80;;;;;;4837451;54;21007;-26
2021/06/05 16:09:46;;;;;;;17.58;15.77;;;23.70;54.90;;;;;;4828901;54;21003;-35
2021/06/05 16:14:47;;;;;;;16.15;14.45;;;23.70;54.90;;;;;;4796042;54;21071;-31
2021/06/05 16:19:48;;;;;;;16.42;14.77;;;23.70;54.90;;;;;;4822106;54;20999;-35
2021/06/05 16:24:49;;;;;;;17.23;15.45;;;23.70;54.90;;;;;;4794950;58;21151;-38
2021/06/05 16:29:50;;;;;;;16.65;14.95;;;23.70;54.90;;;;;;4833523;54;21867;-35
2021/06/05 16:34:51;;;;;;;17.48;15.65;;;23.70;55.00;;;;;;4835435;54;21131;-28
2021/06/05 16:39:52;;;;;;;16.90;15.10;;;23.70;54.90;;;;;;4795004;58;21067;-30
2021/06/05 16:44:52;;;;;;;18.25;16.35;;;23.70;55.00;;;;;;4807373;54;21039;-31
2021/06/05 16:49:53;;;;;;;18.05;15.60;;;23.70;54.90;;;;;;4805981;54;20983;-31
2021/06/05 16:54:54;;;;;;;17.33;15.52;;;23.70;54.90;;;;;;4794237;58;21613;-37
2021/06/05 16:59:55;;;;;;;17.55;15.10;;;23.70;54.90;;;;;;4835855;54;21038;-43
2021/06/05 17:04:56;;;;;;;15.75;14.10;;;23.70;55.00;;;;;;4802933;54;21007;-28
2021/06/05 17:09:57;;;;;;;17.65;15.57;;;23.70;55.00;;;;;;4796268;54;21585;-37
2021/06/05 17:14:58;;;;;;;16.58;14.77;;;23.70;55.00;;;;;;4811616;54;21039;-32
2021/06/05 17:19:59;;;;;;;16.60;14.80;;;23.70;55.00;;;;;;4795134;58;21043;-30
2021/06/05 17:24:59;;;;;;;16.83;15.13;;;23.70;55.00;;;;;;4806542;54;21031;-37
2021/06/05 17:30:01;;;;;;;18.23;16.33;;;23.70;55.00;;;;;;4795523;58;21003;-36
2021/06/05 17:35:08;;;;;;;17.95;16.15;;;23.70;55.00;;;;;;4794302;55;21007;-33
2021/06/05 17:40:13;;;;;;;17.15;15.35;;;23.70;55.00;;;;;;4853342;54;20998;-36
2021/06/05 17:45:16;;;;;;;16.35;14.75;;;23.70;55.00;;;;;;4848858;54;20991;-34
2021/06/05 17:50:17;;;;;;;17.20;15.48;;;23.70;55.00;;;;;;4809286;54;20959;-31
2021/06/05 17:55:24;;;;;;;16.87;15.18;;;23.70;55.00;;;;;;4877063;54;21015;-34
2021/06/05 18:00:32;;;;;;;17.77;15.98;;;23.70;55.00;;;;;;4834549;54;21480;-39
2021/06/05 18:05:33;;;;;;;17.85;15.60;;;23.70;55.10;;;;;;4797016;54;21015;-32
2021/06/05 18:10:35;;;;;;;17.20;15.40;;;23.70;55.10;;;;;;4796443;54;21098;-35
2021/06/05 18:15:40;;;;;;;17.87;15.98;;;23.70;55.10;;;;;;4801722;54;21103;-35
2021/06/05 18:20:42;;;;;;;17.15;15.35;;;23.70;55.20;;;;;;4795091;58;21719;-29
2021/06/05 18:25:43;;;;;;;17.25;15.55;;;23.70;55.10;;;;;;4796653;54;21091;-31
2021/06/05 18:30:49;;;;;;;19.60;16.75;;;23.70;55.10;;;;;;4821588;54;21544;-36
2021/06/05 18:35:50;;;;;;;16.55;14.85;;;23.70;55.10;;;;;;4804915;54;21027;-33
2021/06/05 18:40:52;;;;;;;17.30;15.50;;;23.70;55.10;;;;;;4796062;55;21549;-30
2021/06/05 18:45:54;;;;;;;16.00;14.30;;;23.70;55.20;;;;;;4812329;54;20994;-31
2021/06/05 18:50:56;;;;;;;17.40;15.50;;;23.80;55.20;;;;;;4795257;58;21045;-35
2021/06/05 18:55:57;;;;;;;16.33;14.73;;;23.80;55.20;;;;;;4804254;54;21003;-35
2021/06/05 19:00:59;;;;;;;17.77;15.88;;;23.80;55.20;;;;;;4801493;54;21009;-33
2021/06/05 19:06:01;;;;;;;16.67;14.98;;;23.70;55.20;;;;;;4870404;54;21529;-35
2021/06/05 19:11:05;;;;;;;18.17;16.20;;;23.80;55.20;;;;;;4805969;54;21039;-33
2021/06/05 19:16:09;;;;;;;17.27;15.48;;;23.80;55.30;;;;;;4813540;54;21537;-29
2021/06/05 19:21:12;;;;;;;16.58;14.87;;;23.80;55.30;;;;;;4795206;58;21059;-35
2021/06/05 19:26:15;;;;;;;16.35;14.63;;;23.80;55.30;;;;;;4812060;54;21718;-35
2021/06/05 19:31:18;;;;;;;17.35;15.57;;;23.80;55.30;;;;;;4821134;54;21513;-31
2021/06/05 19:36:25;;;;;;;16.25;14.65;;;23.80;55.40;;;;;;4935951;54;21027;-31
2021/06/05 19:41:27;;;;;;;16.33;14.65;;;23.80;55.40;;;;;;4822349;54;21039;-27
2021/06/05 19:46:32;;;;;;;17.60;15.55;;;23.80;55.40;;;;;;4816868;54;21035;-26
2021/06/05 19:51:35;;;;;;;17.77;15.98;;;23.80;55.40;;;;;;4827994;54;21538;-35
2021/06/05 19:56:37;;;;;;;17.02;15.25;;;23.80;55.40;;;;;;4815132;54;21070;-36
2021/06/05 20:01:41;;;;;;;17.58;15.77;;;23.80;55.50;;;;;;4862013;54;20983;-31
2021/06/05 20:06:43;;;;;;;17.90;16.00;;;23.80;55.50;;;;;;4804111;54;20994;-37
2021/06/05 20:11:46;;;;;;;17.08;15.27;;;23.80;55.50;;;;;;4825282;54;21513;-33
2021/06/05 20:16:48;;;;;;;16.27;14.57;;;23.80;55.50;;;;;;4825315;54;21035;-38
2021/06/05 20:21:51;;;;;;;16.55;14.85;;;23.80;55.50;;;;;;4845615;54;21529;-30
2021/06/05 20:26:53;;;;;;;17.48;15.00;;;23.80;55.50;;;;;;4794597;58;21509;-30
2021/06/05 20:31:53;;;;;;;17.17;15.40;;;23.80;55.60;;;;;;4795625;58;20988;-35
2021/06/05 20:36:54;;;;;;;16.17;14.50;;;23.80;55.50;;;;;;4806857;54;21003;-29
2021/06/05 20:41:55;;;;;;;16.25;14.55;;;23.80;55.50;;;;;;4799409;54;21489;-31
2021/06/05 20:46:56;;;;;;;16.83;15.13;;;23.80;55.60;;;;;;4793954;55;21510;-33
2021/06/05 20:51:58;;;;;;;17.85;15.68;;;23.80;55.60;;;;;;4802796;54;20987;-34
2021/06/05 20:57:03;;;;;;;16.60;14.90;;;23.80;55.60;;;;;;4847307;54;21011;-32
2021/06/05 21:02:07;;;;;;;16.65;14.95;;;23.80;55.60;;;;;;4795486;58;21023;-29
2021/06/05 21:07:08;;;;;;;15.90;14.25;;;23.80;55.60;;;;;;4794997;58;21486;-29
2021/06/05 21:12:09;;;;;;;16.60;14.77;;;23.80;55.70;;;;;;4837183;54;21051;-35
2021/06/05 21:17:10;;;;;;;16.73;14.90;;;23.80;55.60;;;;;;4795324;58;20987;-33
2021/06/05 21:22:11;;;;;;;16.92;15.13;;;23.80;55.60;;;;;;4794935;58;20999;-34
2021/06/05 21:27:12;;;;;;;19.12;16.35;;;23.80;55.60;;;;;;4794309;58;21134;-34
2021/06/05 21:32:14;;;;;;;16.05;14.45;;;23.80;56.20;;;;;;4830595;54;21034;-21
2021/06/05 21:37:16;;;;;;;16.42;14.73;;;23.80;55.60;;;;;;4806342;54;21067;-25
2021/06/05 21:42:16;;;;;;;15.60;13.95;;;23.80;55.60;;;;;;4856014;54;21458;-19
2021/06/05 21:47:17;;;;;;;16.58;14.55;;;23.80;55.70;;;;;;4805882;54;21007;-36
2021/06/05 21:52:18;;;;;;;16.45;14.63;;;23.80;55.60;;;;;;4794987;58;20979;-27
2021/06/05 21:57:19;;;;;;;16.37;14.77;;;23.80;55.60;;;;;;4806714;54;21727;-34
2021/06/05 22:02:20;;;;;;;15.18;13.68;;;23.80;55.70;;;;;;4807233;54;21434;-36
2021/06/05 22:07:21;;;;;;;17.85;15.02;;;23.80;55.70;;;;;;4807341;54;21071;-32
2021/06/05 22:12:21;;;;;;;15.98;14.27;;;23.80;55.80;;;;;;4820557;54;21019;-35
2021/06/05 22:17:24;;;;;;;16.70;14.38;;;23.80;55.70;;;;;;4803975;54;21011;-29
2021/06/05 22:22:29;;;;;;;15.95;14.35;;;23.80;55.70;;;;;;4814403;54;21442;-28
2021/06/05 22:27:34;;;;;;;16.50;14.73;;;23.80;55.70;;;;;;4795510;54;21067;-34
2021/06/05 22:32:36;;;;;;;15.38;13.77;;;23.80;55.80;;;;;;4797671;54;21000;-29
2021/06/05 22:37:36;;;;;;;15.82;14.23;;;23.80;55.70;;;;;;4841880;54;21050;-27
2021/06/05 22:42:37;;;;;;;15.85;14.25;;;23.80;55.70;;;;;;4812392;54;20997;-20
2021/06/05 22:47:38;;;;;;;14.50;13.02;;;23.80;55.70;;;;;;4810064;54;21035;-29
2021/06/05 22:52:42;;;;;;;14.75;13.27;;;23.80;55.70;;;;;;4891602;54;21121;-27
2021/06/05 22:57:43;;;;;;;16.00;14.40;;;23.80;55.70;;;;;;4801036;54;21489;-26
2021/06/05 23:02:44;;;;;;;14.25;12.85;;;23.80;55.70;;;;;;4891240;54;21027;-34
2021/06/05 23:07:45;;;;;;;14.63;13.13;;;23.80;55.70;;;;;;4795053;58;21019;-36
2021/06/05 23:12:46;;;;;;;15.02;13.52;;;23.80;55.80;;;;;;4829877;54;20963;-26
2021/06/05 23:17:47;;;;;;;14.55;13.13;;;23.80;55.80;;;;;;4800446;54;21482;-33
2021/06/05 23:22:48;;;;;;;14.02;12.63;;;23.80;55.80;;;;;;4812459;54;21623;-33
2021/06/05 23:27:50;;;;;;;14.95;13.45;;;23.80;55.80;;;;;;4852006;54;21047;-29
2021/06/05 23:32:52;;;;;;;14.98;13.50;;;23.80;55.80;;;;;;4813864;54;21533;-33
2021/06/05 23:37:53;;;;;;;14.25;12.75;;;23.80;55.80;;;;;;4832335;54;21030;-35
2021/06/05 23:42:55;;;;;;;14.65;13.23;;;23.80;55.80;;;;;;4798080;54;21019;-33
2021/06/05 23:47:56;;;;;;;14.85;13.38;;;23.80;55.80;;;;;;4795566;58;21911;-29
2021/06/05 23:52:57;;;;;;;14.95;13.45;;;23.80;55.80;;;;;;4806591;54;21047;-35
2021/06/05 23:57:59;;;;;;;14.87;13.40;;;23.80;55.90;;;;;;4807950;54;21015;-35
